createdAt,value
2018-06-30T00:00:57.783Z,71.20
2018-06-30T00:03:45.866Z,72.00
2018-06-30T00:06:26.194Z,70.58
2018-06-30T00:08:54.514Z,70.79
2018-06-30T00:11:24.714Z,70.89
2018-06-30T00:13:52.085Z,70.79
2018-06-30T00:16:21.831Z,69.44
2018-06-30T00:18:48.746Z,69.45
2018-06-30T00:21:16.359Z,69.74
2018-06-30T00:23:43.323Z,69.70
2018-06-30T00:26:10.314Z,69.66
2018-06-30T00:28:38.538Z,69.64
2018-06-30T00:31:06.482Z,69.02
2018-06-30T00:33:36.542Z,69.32
2018-06-30T00:36:06.502Z,69.00
2018-06-30T00:38:44.562Z,69.58
2018-06-30T00:41:12.339Z,69.98
2018-06-30T00:43:39.242Z,70.40
2018-06-30T00:46:08.873Z,71.56
2018-06-30T00:48:37.411Z,70.82
2018-06-30T00:51:05.851Z,71.26
2018-06-30T00:53:34.349Z,72.37
2018-06-30T00:56:01.850Z,71.52
2018-06-30T00:58:44.461Z,71.02
2018-06-30T01:01:19.082Z,70.16
2018-06-30T01:03:48.056Z,71.32
2018-06-30T01:06:16.874Z,71.98
2018-06-30T01:08:44.896Z,71.08
2018-06-30T01:11:14.450Z,70.54
2018-06-30T01:13:46.054Z,72.04
2018-06-30T01:16:14.861Z,70.58
2018-06-30T01:18:47.963Z,69.98
2018-06-30T01:21:14.903Z,66.89
2018-06-30T01:23:42.822Z,67.06
2018-06-30T01:26:12.826Z,68.09
2018-06-30T01:28:44.390Z,68.19
2018-06-30T01:31:12.886Z,68.97
2018-06-30T01:33:39.810Z,68.85
2018-06-30T01:36:06.797Z,68.37
2018-06-30T01:38:33.738Z,66.88
2018-06-30T01:41:00.762Z,69.37
2018-06-30T01:43:27.647Z,66.93
2018-06-30T01:45:54.661Z,65.39
2018-06-30T01:48:23.437Z,64.47
2018-06-30T01:50:55.815Z,64.93
2018-06-30T01:53:22.742Z,65.89
2018-06-30T01:55:50.338Z,65.30
2018-06-30T01:58:22.307Z,64.52
2018-06-30T02:00:55.264Z,65.42
2018-06-30T02:03:22.130Z,64.71
2018-06-30T02:05:49.031Z,65.94
2018-06-30T02:08:21.298Z,65.51
2018-06-30T02:10:48.887Z,65.35
2018-06-30T02:13:17.390Z,65.22
2018-06-30T02:15:48.838Z,65.39
2018-06-30T02:18:18.761Z,65.36
2018-06-30T02:20:56.110Z,65.64
2018-06-30T02:23:23.027Z,66.17
2018-06-30T02:25:50.854Z,65.26
2018-06-30T02:28:18.370Z,65.91
2018-06-30T02:30:45.330Z,65.02
2018-06-30T02:33:13.335Z,65.54
2018-06-30T02:35:44.870Z,65.23
2018-06-30T02:38:11.865Z,64.83
2018-06-30T02:40:38.823Z,65.65
2018-06-30T02:43:10.906Z,65.47
2018-06-30T02:45:40.422Z,66.06
2018-06-30T02:48:12.468Z,65.55
2018-06-30T02:50:39.933Z,65.17
2018-06-30T02:53:08.481Z,65.04
2018-06-30T02:55:35.386Z,65.29
2018-06-30T02:58:02.920Z,65.14
2018-06-30T03:00:31.913Z,64.47
2018-06-30T03:03:02.411Z,64.86
2018-06-30T03:05:32.375Z,64.50
2018-06-30T03:08:01.340Z,65.20
2018-06-30T03:10:28.255Z,65.75
2018-06-30T03:12:56.175Z,65.72
2018-06-30T03:15:32.667Z,64.58
2018-06-30T03:18:09.247Z,65.06
2018-06-30T03:20:37.929Z,64.89
2018-06-30T03:23:07.954Z,63.81
2018-06-30T03:25:35.958Z,64.22
2018-06-30T03:28:10.482Z,65.33
2018-06-30T03:30:39.159Z,64.66
2018-06-30T03:33:11.099Z,63.58
2018-06-30T03:35:51.737Z,63.33
2018-06-30T03:38:24.963Z,62.86
2018-06-30T03:40:53.044Z,62.34
2018-06-30T03:43:20.902Z,61.77
2018-06-30T03:45:49.410Z,61.55
2018-06-30T03:48:17.391Z,60.23
2018-06-30T03:50:44.338Z,60.44
2018-06-30T03:53:12.396Z,60.33
2018-06-30T03:55:39.426Z,59.93
2018-06-30T03:58:06.334Z,58.84
2018-06-30T04:00:34.970Z,57.69
2018-06-30T04:03:02.907Z,58.17
2018-06-30T04:05:30.506Z,57.52
2018-06-30T04:07:57.479Z,56.97
2018-06-30T04:10:31.263Z,56.29
2018-06-30T04:13:02.918Z,56.46
2018-06-30T04:15:31.510Z,54.93
2018-06-30T04:18:08.515Z,54.83
2018-06-30T04:20:37.002Z,54.00
2018-06-30T04:23:15.086Z,54.94
2018-06-30T04:25:45.878Z,53.80
2018-06-30T04:28:13.426Z,53.14
2018-06-30T04:30:42.982Z,53.78
2018-06-30T04:33:10.443Z,52.75
2018-06-30T04:35:38.326Z,52.13
2018-06-30T04:38:06.318Z,50.53
2018-06-30T04:40:37.266Z,50.32
2018-06-30T04:43:10.282Z,50.32
2018-06-30T04:45:37.206Z,50.16
2018-06-30T04:48:04.163Z,50.22
2018-06-30T04:50:44.481Z,49.27
2018-06-30T04:53:15.520Z,49.43
2018-06-30T04:55:42.446Z,49.88
2018-06-30T04:58:22.002Z,50.66
2018-06-30T05:00:49.482Z,50.51
2018-06-30T05:03:20.410Z,49.04
2018-06-30T05:05:48.991Z,50.30
2018-06-30T05:08:16.495Z,52.23
2018-06-30T05:10:46.422Z,52.98
2018-06-30T05:13:13.375Z,52.39
2018-06-30T05:15:40.941Z,53.13
2018-06-30T05:18:08.502Z,52.35
2018-06-30T05:20:36.017Z,53.67
2018-06-30T05:23:02.974Z,54.15
2018-06-30T05:25:33.066Z,54.94
2018-06-30T05:28:01.059Z,53.50
2018-06-30T05:30:32.098Z,55.58
2018-06-30T05:33:04.559Z,53.08
2018-06-30T05:35:37.804Z,53.86
2018-06-30T05:38:04.793Z,52.88
2018-06-30T05:40:31.691Z,52.92
2018-06-30T05:42:59.526Z,54.14
2018-06-30T05:45:26.402Z,52.83
2018-06-30T05:48:00.892Z,52.78
2018-06-30T05:50:29.799Z,53.46
2018-06-30T05:52:58.799Z,53.24
2018-06-30T05:55:29.367Z,53.23
2018-06-30T05:57:57.013Z,52.91
2018-06-30T06:00:23.942Z,53.62
2018-06-30T06:02:50.925Z,52.98
2018-06-30T06:05:18.494Z,53.04
2018-06-30T06:07:46.069Z,51.75
2018-06-30T06:10:14.600Z,53.41
2018-06-30T06:12:43.614Z,50.88
2018-06-30T06:15:10.575Z,51.64
2018-06-30T06:17:38.570Z,51.57
2018-06-30T06:20:11.564Z,52.55
2018-06-30T06:22:39.975Z,52.20
2018-06-30T06:25:08.555Z,52.29
2018-06-30T06:27:41.530Z,51.41
2018-06-30T06:30:10.143Z,51.50
2018-06-30T06:32:45.795Z,51.28
2018-06-30T06:35:19.534Z,51.34
2018-06-30T06:37:48.090Z,50.85
2018-06-30T06:40:16.034Z,51.52
2018-06-30T06:42:45.550Z,50.50
2018-06-30T06:45:14.026Z,50.23
2018-06-30T06:47:43.987Z,51.70
2018-06-30T06:50:13.898Z,49.71
2018-06-30T06:52:42.499Z,49.48
2018-06-30T06:55:15.575Z,49.48
2018-06-30T06:57:48.494Z,49.53
2018-06-30T07:00:18.127Z,47.02
2018-06-30T07:02:49.597Z,45.17
2018-06-30T07:05:19.518Z,45.99
2018-06-30T07:07:49.538Z,46.36
2018-06-30T07:10:23.667Z,47.34
2018-06-30T07:12:54.851Z,46.73
2018-06-30T07:15:29.864Z,46.90
2018-06-30T07:17:59.793Z,47.74
2018-06-30T07:20:27.580Z,46.31
2018-06-30T07:22:59.486Z,45.77
2018-06-30T07:25:26.434Z,45.65
2018-06-30T07:27:58.058Z,44.92
2018-06-30T07:30:27.981Z,44.08
2018-06-30T07:32:59.569Z,43.50
2018-06-30T07:35:29.495Z,43.17
2018-06-30T07:38:02.142Z,42.78
2018-06-30T07:40:32.003Z,42.60
2018-06-30T07:42:59.578Z,42.40
2018-06-30T07:45:28.598Z,43.93
2018-06-30T07:47:57.090Z,42.15
2018-06-30T07:50:31.269Z,44.14
2018-06-30T07:53:11.178Z,43.05
2018-06-30T07:55:42.424Z,44.88
2018-06-30T07:58:13.229Z,44.58
2018-06-30T08:00:42.079Z,45.41
2018-06-30T08:03:09.138Z,42.78
2018-06-30T08:05:39.078Z,43.65
2018-06-30T08:08:06.634Z,42.32
2018-06-30T08:10:36.555Z,42.18
2018-06-30T08:13:03.494Z,42.07
2018-06-30T08:15:30.459Z,40.38
2018-06-30T08:17:58.162Z,41.26
2018-06-30T08:20:25.110Z,42.06
2018-06-30T08:22:57.093Z,40.87
2018-06-30T08:25:28.263Z,40.83
2018-06-30T08:28:03.359Z,41.62
2018-06-30T08:30:31.066Z,42.02
2018-06-30T08:33:02.039Z,41.70
2018-06-30T08:35:30.634Z,40.55
2018-06-30T08:38:00.554Z,43.27
2018-06-30T08:40:28.155Z,41.34
2018-06-30T08:42:55.073Z,42.18
2018-06-30T08:45:22.023Z,40.69
2018-06-30T08:47:48.998Z,41.02
2018-06-30T08:50:15.925Z,42.15
2018-06-30T08:52:44.629Z,39.74
2018-06-30T08:55:14.207Z,39.76
2018-06-30T08:57:41.642Z,38.98
2018-06-30T09:00:09.610Z,40.06
2018-06-30T09:02:39.414Z,40.36
2018-06-30T09:05:09.227Z,39.55
2018-06-30T09:07:38.889Z,41.45
2018-06-30T09:10:09.151Z,40.07
2018-06-30T09:12:37.606Z,38.96
2018-06-30T09:15:05.547Z,42.03
2018-06-30T09:17:33.523Z,39.65
2018-06-30T09:20:01.154Z,39.76
2018-06-30T09:22:29.669Z,40.57
2018-06-30T09:24:56.610Z,39.30
2018-06-30T09:27:24.170Z,37.95
2018-06-30T09:29:51.235Z,39.06
2018-06-30T09:32:20.127Z,40.00
2018-06-30T09:34:47.726Z,39.95
2018-06-30T09:37:19.728Z,39.56
2018-06-30T09:39:47.693Z,38.31
2018-06-30T09:42:14.606Z,37.96
2018-06-30T09:44:42.184Z,37.44
2018-06-30T09:47:09.658Z,38.39
2018-06-30T09:49:39.151Z,38.13
2018-06-30T09:52:09.142Z,38.13
2018-06-30T09:54:36.111Z,37.56
2018-06-30T09:57:03.066Z,39.15
2018-06-30T09:59:29.954Z,38.18
2018-06-30T10:01:56.946Z,40.77
2018-06-30T10:04:23.882Z,37.62
2018-06-30T10:06:51.728Z,37.14
2018-06-30T10:09:18.590Z,37.77
2018-06-30T10:11:50.125Z,39.39
2018-06-30T10:14:17.002Z,37.59
2018-06-30T10:16:50.154Z,37.70
2018-06-30T10:19:17.308Z,36.50
2018-06-30T10:21:44.027Z,36.69
2018-06-30T10:24:10.881Z,36.77
2018-06-30T10:26:41.874Z,35.05
2018-06-30T10:29:09.655Z,35.50
2018-06-30T10:31:38.638Z,35.14
2018-06-30T10:34:07.091Z,36.42
2018-06-30T10:36:33.997Z,36.89
2018-06-30T10:39:00.962Z,35.56
2018-06-30T10:41:27.881Z,35.73
2018-06-30T10:43:55.686Z,36.17
2018-06-30T10:46:23.098Z,34.24
2018-06-30T10:48:53.054Z,32.44
2018-06-30T10:51:23.018Z,34.54
2018-06-30T10:53:49.979Z,32.46
2018-06-30T10:56:17.643Z,33.84
2018-06-30T10:58:45.157Z,33.05
2018-06-30T11:01:12.087Z,32.02
2018-06-30T11:03:39.670Z,32.45
2018-06-30T11:06:07.203Z,32.48
2018-06-30T11:08:34.092Z,33.93
2018-06-30T11:11:01.149Z,32.73
2018-06-30T11:13:28.745Z,33.73
2018-06-30T11:15:55.666Z,33.38
2018-06-30T11:18:23.115Z,32.03
2018-06-30T11:20:50.706Z,31.44
2018-06-30T11:23:17.666Z,33.94
2018-06-30T11:25:45.702Z,32.43
2018-06-30T11:28:13.218Z,33.07
2018-06-30T11:30:43.110Z,33.09
2018-06-30T11:33:14.094Z,31.54
2018-06-30T11:35:43.995Z,31.61
2018-06-30T11:38:12.716Z,32.24
2018-06-30T11:40:40.198Z,32.83
2018-06-30T11:43:07.149Z,32.70
2018-06-30T11:45:34.109Z,32.82
2018-06-30T11:48:03.431Z,32.60
2018-06-30T11:50:32.195Z,34.65
2018-06-30T11:52:59.693Z,35.15
2018-06-30T11:55:28.130Z,33.56
2018-06-30T11:57:55.816Z,32.07
2018-06-30T12:00:24.176Z,33.12
2018-06-30T12:02:51.733Z,36.06
2018-06-30T12:05:18.743Z,30.87
2018-06-30T12:07:45.738Z,30.92
2018-06-30T12:10:12.731Z,32.02
2018-06-30T12:12:39.683Z,34.14
2018-06-30T12:15:06.667Z,31.11
2018-06-30T12:17:34.640Z,31.22
2018-06-30T12:20:04.768Z,31.74
2018-06-30T12:22:31.766Z,32.33
2018-06-30T12:24:59.344Z,33.19
2018-06-30T12:27:26.366Z,33.36
2018-06-30T12:29:53.239Z,33.55
2018-06-30T12:32:20.294Z,32.11
2018-06-30T12:34:47.153Z,33.13
2018-06-30T12:37:14.177Z,31.82
2018-06-30T12:39:41.070Z,32.43
2018-06-30T12:42:08.067Z,31.68
2018-06-30T12:44:35.694Z,31.51
2018-06-30T12:47:02.690Z,31.86
2018-06-30T12:49:29.609Z,31.81
2018-06-30T12:51:56.574Z,31.96
2018-06-30T12:54:23.610Z,30.65
2018-06-30T12:56:50.374Z,30.10
2018-06-30T12:59:17.230Z,30.26
2018-06-30T13:01:44.092Z,29.79
2018-06-30T13:04:11.926Z,28.68
2018-06-30T13:06:38.781Z,30.20
2018-06-30T13:09:07.768Z,28.77
2018-06-30T13:11:34.702Z,30.75
2018-06-30T13:14:01.650Z,31.42
2018-06-30T13:16:28.603Z,30.20
2018-06-30T13:18:55.551Z,30.92
2018-06-30T13:21:22.413Z,28.51
2018-06-30T13:23:49.359Z,27.97
2018-06-30T13:26:16.262Z,28.99
2018-06-30T13:28:43.270Z,31.03
2018-06-30T13:31:10.166Z,30.05
2018-06-30T13:33:43.073Z,30.25
2018-06-30T13:36:10.016Z,29.68
2018-06-30T13:38:40.983Z,28.47
2018-06-30T13:41:08.766Z,30.02
2018-06-30T13:43:35.752Z,29.90
2018-06-30T13:46:02.704Z,30.59
2018-06-30T13:48:29.650Z,29.32
2018-06-30T13:50:56.590Z,29.32
2018-06-30T13:53:24.425Z,28.45
2018-06-30T13:55:54.451Z,29.54
2018-06-30T13:58:23.323Z,30.04
2018-06-30T14:00:50.838Z,27.50
2018-06-30T14:03:17.738Z,30.18
2018-06-30T14:05:44.830Z,28.78
2018-06-30T14:08:12.390Z,27.79
2018-06-30T14:10:39.330Z,28.61
2018-06-30T14:13:06.294Z,28.37
2018-06-30T14:15:34.263Z,27.16
2018-06-30T14:18:05.118Z,26.77
2018-06-30T14:20:32.061Z,27.74
2018-06-30T14:22:59.843Z,28.05
2018-06-30T14:25:26.762Z,28.27
2018-06-30T14:27:54.361Z,28.32
2018-06-30T14:30:21.342Z,27.73
2018-06-30T14:32:48.283Z,28.74
2018-06-30T14:35:19.141Z,28.70
2018-06-30T14:37:46.869Z,30.43
2018-06-30T14:40:15.270Z,28.61
2018-06-30T14:42:47.478Z,26.48
2018-06-30T14:45:18.327Z,24.06
2018-06-30T14:47:45.802Z,25.52
2018-06-30T14:50:12.771Z,25.72
2018-06-30T14:52:39.630Z,27.46
2018-06-30T14:55:15.023Z,27.25
2018-06-30T14:57:45.009Z,28.46
2018-06-30T15:00:13.049Z,25.43
2018-06-30T15:02:42.973Z,24.68
2018-06-30T15:05:11.079Z,23.25
2018-06-30T15:07:38.086Z,24.59
2018-06-30T15:10:05.537Z,25.06
2018-06-30T15:12:32.484Z,26.25
2018-06-30T15:14:59.402Z,26.54
2018-06-30T15:17:27.930Z,29.71
2018-06-30T15:19:55.806Z,31.22
2018-06-30T15:22:22.754Z,32.64
2018-06-30T15:24:49.670Z,33.47
2018-06-30T15:27:16.607Z,32.88
2018-06-30T15:29:46.462Z,32.68
2018-06-30T15:32:15.418Z,34.18
2018-06-30T15:34:43.439Z,33.07
2018-06-30T15:37:10.376Z,30.36
2018-06-30T15:39:37.306Z,25.87
2018-06-30T15:42:04.429Z,24.75
2018-06-30T15:44:31.425Z,22.73
2018-06-30T15:46:58.382Z,23.49
2018-06-30T15:49:25.822Z,24.37
2018-06-30T15:51:52.702Z,25.79
2018-06-30T15:54:21.394Z,24.95
2018-06-30T15:56:48.363Z,25.92
2018-06-30T15:59:15.332Z,25.07
2018-06-30T16:01:42.284Z,25.32
2018-06-30T16:04:09.234Z,27.05
2018-06-30T16:06:36.194Z,28.55
2018-06-30T16:09:06.658Z,28.95
2018-06-30T16:11:33.570Z,28.44
2018-06-30T16:14:01.354Z,28.10
2018-06-30T16:16:28.420Z,27.66
2018-06-30T16:18:55.226Z,26.01
2018-06-30T16:21:22.822Z,27.81
2018-06-30T16:23:49.794Z,27.79
2018-06-30T16:26:18.386Z,28.20
2018-06-30T16:28:45.375Z,28.96
2018-06-30T16:31:13.294Z,28.05
2018-06-30T16:33:40.194Z,27.83
2018-06-30T16:36:08.163Z,27.31
2018-06-30T16:38:35.135Z,27.04
2018-06-30T16:41:02.073Z,27.03
2018-06-30T16:43:31.018Z,28.09
2018-06-30T16:45:57.950Z,29.44
2018-06-30T16:48:24.884Z,28.42
2018-06-30T16:50:51.842Z,27.17
2018-06-30T16:53:18.898Z,27.78
2018-06-30T16:55:47.050Z,28.25
2018-06-30T16:58:14.888Z,27.05
2018-06-30T17:00:41.848Z,27.06
2018-06-30T17:03:08.810Z,26.42
2018-06-30T17:05:35.978Z,25.67
2018-06-30T17:08:02.897Z,27.37
2018-06-30T17:10:30.421Z,26.58
2018-06-30T17:12:58.027Z,27.74
2018-06-30T17:15:26.902Z,28.43
2018-06-30T17:17:54.060Z,25.81
2018-06-30T17:20:20.970Z,25.33
2018-06-30T17:22:50.517Z,26.62
2018-06-30T17:25:21.880Z,28.21
2018-06-30T17:27:52.828Z,28.60
2018-06-30T17:30:26.214Z,27.19
2018-06-30T17:32:53.209Z,28.18
2018-06-30T17:35:21.938Z,27.74
2018-06-30T17:37:49.455Z,27.32
2018-06-30T17:40:16.410Z,26.88
2018-06-30T17:42:43.943Z,28.36
2018-06-30T17:45:10.935Z,28.80
2018-06-30T17:47:38.458Z,28.58
2018-06-30T17:50:06.947Z,28.33
2018-06-30T17:52:34.862Z,28.85
2018-06-30T17:55:11.415Z,29.26
2018-06-30T17:57:41.362Z,30.78
2018-06-30T18:00:08.986Z,29.58
2018-06-30T18:02:41.039Z,29.16
2018-06-30T18:05:10.041Z,30.35
2018-06-30T18:07:42.020Z,29.11
2018-06-30T18:10:10.562Z,29.83
2018-06-30T18:12:41.475Z,28.84
2018-06-30T18:15:16.637Z,28.33
2018-06-30T18:17:57.464Z,30.03
2018-06-30T18:20:40.385Z,30.11
2018-06-30T18:23:17.899Z,30.48
2018-06-30T18:25:52.175Z,29.99
2018-06-30T18:28:19.098Z,30.44
2018-06-30T18:30:51.112Z,30.88
2018-06-30T18:33:24.317Z,30.94
2018-06-30T18:35:57.558Z,31.95
2018-06-30T18:38:38.646Z,33.20
2018-06-30T18:41:05.546Z,34.06
2018-06-30T18:43:39.086Z,36.46
2018-06-30T18:46:18.623Z,36.48
2018-06-30T18:48:51.223Z,36.80
2018-06-30T18:51:20.253Z,38.18
2018-06-30T18:53:50.242Z,38.56
2018-06-30T18:56:20.185Z,39.19
2018-06-30T18:58:47.992Z,39.75
2018-06-30T19:01:26.522Z,39.57
2018-06-30T19:03:59.620Z,39.58
2018-06-30T19:06:37.142Z,37.84
2018-06-30T19:09:10.689Z,37.59
2018-06-30T19:11:41.554Z,37.22
2018-06-30T19:14:10.562Z,36.33
2018-06-30T19:16:46.643Z,36.27
2018-06-30T19:19:21.974Z,35.97
2018-06-30T19:21:49.458Z,34.89
2018-06-30T19:24:19.386Z,34.19
2018-06-30T19:26:46.380Z,34.78
2018-06-30T19:29:14.015Z,34.12
2018-06-30T19:31:42.002Z,33.25
2018-06-30T19:34:13.763Z,33.12
2018-06-30T19:36:40.753Z,33.02
2018-06-30T19:39:09.100Z,33.33
2018-06-30T19:41:36.090Z,33.44
2018-06-30T19:44:03.070Z,33.30
2018-06-30T19:46:30.486Z,33.29
2018-06-30T19:49:00.433Z,32.71
2018-06-30T19:51:27.373Z,33.83
2018-06-30T19:53:55.360Z,31.98
2018-06-30T19:56:22.353Z,32.45
2018-06-30T19:58:49.249Z,31.60
2018-06-30T20:01:16.478Z,32.33
2018-06-30T20:03:43.441Z,31.61
2018-06-30T20:06:10.311Z,32.41
2018-06-30T20:08:37.202Z,32.51
2018-06-30T20:11:04.203Z,31.56
2018-06-30T20:13:31.109Z,31.01
2018-06-30T20:16:01.451Z,31.55
2018-06-30T20:18:29.279Z,31.68
2018-06-30T20:20:57.030Z,31.56
2018-06-30T20:23:23.958Z,31.13
2018-06-30T20:25:51.933Z,32.22
2018-06-30T20:28:18.863Z,32.03
2018-06-30T20:30:45.779Z,31.32
2018-06-30T20:33:13.737Z,31.94
2018-06-30T20:35:40.734Z,32.07
2018-06-30T20:38:07.654Z,32.29
2018-06-30T20:40:34.618Z,32.21
2018-06-30T20:43:01.468Z,32.71
2018-06-30T20:45:28.425Z,32.29
2018-06-30T20:47:55.379Z,31.78
2018-06-30T20:50:22.342Z,32.12
2018-06-30T20:52:49.308Z,31.90
2018-06-30T20:55:17.071Z,33.00
2018-06-30T20:57:45.059Z,32.25
2018-06-30T21:00:12.519Z,32.97
2018-06-30T21:02:39.487Z,31.83
2018-06-30T21:05:06.442Z,32.94
2018-06-30T21:07:33.384Z,32.09
2018-06-30T21:10:00.362Z,31.93
2018-06-30T21:12:33.546Z,31.65
2018-06-30T21:15:00.390Z,32.12
2018-06-30T21:17:27.368Z,31.61
2018-06-30T21:19:54.343Z,31.12
2018-06-30T21:22:21.280Z,31.66
2018-06-30T21:24:48.426Z,31.58
2018-06-30T21:27:17.047Z,30.16
2018-06-30T21:29:44.022Z,30.51
2018-06-30T21:32:11.582Z,31.03
2018-06-30T21:34:41.494Z,31.60
2018-06-30T21:37:08.444Z,30.86
2018-06-30T21:39:38.371Z,31.78
2018-06-30T21:42:15.334Z,32.09
2018-06-30T21:44:45.270Z,31.62
2018-06-30T21:47:12.202Z,31.30
2018-06-30T21:49:39.166Z,31.86
2018-06-30T21:52:15.542Z,32.45
2018-06-30T21:54:42.422Z,31.75
2018-06-30T21:57:09.312Z,31.70
2018-06-30T21:59:44.354Z,32.07
2018-06-30T22:02:12.351Z,31.75
2018-06-30T22:04:45.409Z,31.92
2018-06-30T22:07:13.642Z,32.44
2018-06-30T22:09:43.534Z,32.85
2018-06-30T22:12:13.474Z,32.05
2018-06-30T22:14:41.378Z,32.46
2018-06-30T22:17:08.335Z,31.77
2018-06-30T22:19:35.274Z,31.98
2018-06-30T22:22:05.967Z,32.74
2018-06-30T22:24:33.913Z,32.59
2018-06-30T22:27:00.846Z,32.27
2018-06-30T22:29:32.028Z,33.61
2018-06-30T22:31:58.982Z,32.79
2018-06-30T22:34:25.931Z,33.93
2018-06-30T22:36:52.898Z,33.82
2018-06-30T22:39:32.526Z,33.28
2018-06-30T22:42:00.137Z,34.64
2018-06-30T22:44:27.032Z,33.06
2018-06-30T22:47:02.473Z,33.51
2018-06-30T22:49:30.071Z,34.26
2018-06-30T22:52:07.103Z,33.71
2018-06-30T22:54:34.642Z,34.55
2018-06-30T22:57:01.622Z,34.45
2018-06-30T22:59:28.551Z,34.35
2018-06-30T23:01:56.462Z,34.18
2018-06-30T23:04:23.426Z,34.40
2018-06-30T23:06:50.389Z,34.03
2018-06-30T23:09:25.006Z,33.40
2018-06-30T23:11:55.663Z,34.31
2018-06-30T23:14:23.116Z,34.00
2018-06-30T23:16:50.114Z,34.97
2018-06-30T23:19:17.038Z,34.57
2018-06-30T23:21:47.496Z,34.92
2018-06-30T23:24:20.891Z,35.71
2018-06-30T23:26:48.715Z,35.81
2018-06-30T23:29:15.637Z,36.29
2018-06-30T23:31:47.222Z,37.11
2018-06-30T23:34:16.215Z,37.47
2018-06-30T23:36:43.687Z,37.16
2018-06-30T23:39:27.742Z,36.53
2018-06-30T23:41:58.638Z,37.11
2018-06-30T23:44:26.484Z,37.34
2018-06-30T23:46:53.383Z,37.88
2018-06-30T23:49:26.618Z,38.00
2018-06-30T23:52:01.146Z,37.79
2018-06-30T23:54:32.102Z,37.67
2018-06-30T23:56:59.082Z,36.98
2018-06-30T23:59:29.001Z,37.63
